Norwegian Dawn — C6FT7 — position and weather

sailwx.info

Track history (hours):
 
Tides and Currents Weather Stations Pressure Air Temp Water Temp Dewpoint Dewpoint Depression Visibility Wind Speed Wind Dir Waves Ship Positions

Norwegian Dawn

Operator: Norwegian Cruise Line

Last reported at 2018-Feb-26 00:12 UTC. Time now 2018-Feb-26 01:08 UTC.
Position N 27°36' W 082°52'.

Type: Ship. MMSI: 311307000.

Date/timePositionNaut miles runAvg speedWind from/ knotsBaromVisibWave heightAir tempDewpointWater temp
2018-Feb-26 00:12N 27°36' W 082°52'614.7
2018-Feb-25 23:45N 27°36' W 082°44'415.7
2018-Feb-25 23:30N 27°37' W 082°40'715.0
2018-Feb-25 23:00N 27°42' W 082°33'713.3
2018-Feb-25 22:30N 27°48' W 082°30'612.1
2018-Feb-25 22:00N 27°53' W 082°26'3 5.9
2018-Feb-25 21:30N 27°56' W 082°27'1 1.3
2018-Feb-25 20:53N 27°57' W 082°27'0 0.0
2018-Feb-25 20:29N 27°57' W 082°27'0 0.0
2018-Feb-25 19:59N 27°57' W 082°27'0 0.0
2018-Feb-25 19:29N 27°57' W 082°27'0 0.0
2018-Feb-25 18:59N 27°57' W 082°27'0 0.0
2018-Feb-25 18:29N 27°57' W 082°27'0 0.0
2018-Feb-25 17:59N 27°57' W 082°27'0 0.0
2018-Feb-25 17:23N 27°57' W 082°27'0 0.0
2018-Feb-25 16:56N 27°57' W 082°27'0 0.0
2018-Feb-25 16:29N 27°57' W 082°27'0 0.0
2018-Feb-25 15:59N 27°57' W 082°27'0 0.0
2018-Feb-25 15:26N 27°57' W 082°27'0 0.0
2018-Feb-25 14:59N 27°57' W 082°27'0 0.0
2018-Feb-25 14:29N 27°57' W 082°27'0 0.0
2018-Feb-25 13:59N 27°57' W 082°27'0 0.0
2018-Feb-25 13:29N 27°57' W 082°27'0 0.0
2018-Feb-25 12:53N 27°57' W 082°27'0 0.0
2018-Feb-25 12:30N 27°57' W 082°27'0 0.7
2018-Feb-25 12:00N 27°56' W 082°27'2 4.2
2018-Feb-25 11:30N 27°54' W 082°26'3 5.4
2018-Feb-25 11:00N 27°51' W 082°27'611.8
2018-Feb-25 10:30N 27°47' W 082°31'713.3
2018-Feb-25 10:00N 27°41' W 082°34'914.1
2018-Feb-25 09:23N 27°36' W 082°43'76515.8
2018-Feb-23 09:00N 16°00' W 088°24'101 4.2 090 / 251017.3 5.4 26.324.327.4
2018-Feb-22 09:00N 16°42' W 086°48'146 5.6 090 / 301015.3 5.4 26.423.727.4
2018-Feb-21 07:00N 19°06' W 087°12'7810.0 120 / 391017.3 5.4 26.522.827.5
2018-Feb-20 23:09N 20°24' W 087°04'1 7.9
2018-Feb-20 22:59N 20°25' W 087°03'4 8.8
2018-Feb-20 22:30N 20°28' W 087°01'4 7.5
2018-Feb-20 22:00N 20°31' W 086°58'0 0.5
2018-Feb-20 21:29N 20°31' W 086°57'0 0.0
2018-Feb-20 20:53N 20°31' W 086°57'0 0.0
2018-Feb-20 20:29N 20°31' W 086°57'0 0.0
2018-Feb-20 19:59N 20°31' W 086°57'0 0.0
2018-Feb-20 19:29N 20°31' W 086°57'0 0.0
2018-Feb-20 18:59N 20°31' W 086°57'0 0.0
2018-Feb-20 18:29N 20°31' W 086°57'0 0.0
2018-Feb-20 17:59N 20°31' W 086°57'0 0.0
2018-Feb-20 17:29N 20°31' W 086°57'0 0.0
2018-Feb-20 16:59N 20°31' W 086°57'0 0.0
2018-Feb-20 16:29N 20°31' W 086°57'0 0.0
2018-Feb-20 15:59N 20°31' W 086°57'0 0.0
2018-Feb-20 15:29N 20°31' W 086°57'0 0.0
2018-Feb-20 14:59N 20°31' W 086°57'0 0.0
2018-Feb-20 14:29N 20°31' W 086°57'0 0.0
2018-Feb-20 13:59N 20°31' W 086°57'0 0.0
2018-Feb-20 13:29N 20°31' W 086°57'0 0.0
2018-Feb-20 12:59N 20°31' W 086°57'0 0.0
2018-Feb-20 12:29N 20°31' W 086°57'0 0.0
2018-Feb-20 12:00N 20°31' W 086°57'2 3.4
2018-Feb-20 11:30N 20°32' W 086°57'5 9.3
2018-Feb-20 11:00N 20°37' W 086°55'5110.1
2018-Feb-20 06:00N 21°18' W 086°24'28714.4 110 / 291017.310.8 26.023.727.3
2018-Feb-19 10:00N 25°36' W 084°06'11713.9 110 / 311021.1 5.4 27.225.025.9
2018-Feb-19 01:34N 27°21' W 083°09'113.9
2018-Feb-19 01:29N 27°22' W 083°09'713.9
2018-Feb-19 01:00N 27°28' W 083°05'713.7
2018-Feb-19 00:31N 27°34' W 083°02'714.9
2018-Feb-19 00:00N 27°36' W 082°54'816.1
2018-Feb-18 23:30N 27°36' W 082°44'816.1
2018-Feb-18 23:00N 27°40' W 082°36'715.0
2018-Feb-18 22:30N 27°46' W 082°31'612.0
2018-Feb-18 22:00N 27°50' W 082°27'5 9.8
2018-Feb-18 21:31N 27°55' W 082°27'2 3.5
2018-Feb-18 21:00N 27°57' W 082°27'0 0.0
2018-Feb-18 20:27N 27°57' W 082°27'0 0.0
2018-Feb-18 20:00N 27°57' W 082°27'0 0.0
2018-Feb-18 19:30N 27°57' W 082°27'0 0.0
2018-Feb-18 18:54N 27°57' W 082°27'0 0.0
2018-Feb-18 18:18N 27°57' W 082°27'0 0.0
2018-Feb-18 18:00N 27°57' W 082°27'0 0.0
2018-Feb-18 17:30N 27°57' W 082°27'0 0.0
2018-Feb-18 16:54N 27°57' W 082°27'0 0.0
2018-Feb-18 16:27N 27°57' W 082°27'0 0.0
2018-Feb-18 16:00N 27°57' W 082°27'0 0.0
2018-Feb-18 15:30N 27°57' W 082°27'0 0.0
2018-Feb-18 15:00N 27°57' W 082°27'0 0.0
2018-Feb-18 14:27N 27°57' W 082°27'0 0.0
2018-Feb-18 13:51N 27°57' W 082°27'0 0.0
2018-Feb-18 13:30N 27°57' W 082°27'0 0.0
2018-Feb-18 13:00N 27°57' W 082°27'0 0.0
2018-Feb-18 12:21N 27°57' W 082°27'0 0.0
2018-Feb-18 12:00N 27°57' W 082°27'0 0.0
2018-Feb-18 11:27N 27°57' W 082°27'0 0.0
2018-Feb-18 11:00N 27°57' W 082°27'0 0.0
2018-Feb-18 10:30N 27°57' W 082°27'0 0.0
2018-Feb-18 10:00N 27°57' W 082°27'0 0.0
2018-Feb-18 09:30N 27°57' W 082°27'0 0.1
2018-Feb-18 09:00N 27°57' W 082°27'0 0.9
2018-Feb-18 08:30N 27°56' W 082°27'2 4.0
2018-Feb-18 08:00N 27°54' W 082°26'612.0
2018-Feb-18 07:30N 27°48' W 082°28'612.7
2018-Feb-18 07:00N 27°43' W 082°32'815.9
2018-Feb-18 06:30N 27°38' W 082°38'816.6
2018-Feb-18 06:00N 27°37' W 082°48'714.5
2018-Feb-18 05:30N 27°36' W 082°56'1014.8
2018-Feb-18 04:51N 27°30' W 083°04'515.3
2018-Feb-18 04:30N 27°25' W 083°06'39917.7
2018-Feb-17 06:00N 20°48' W 083°48'235 9.8 050 / 171019.010.8 24.621.328.0
2018-Feb-16 06:00N 19°00' W 080°06'   030 / 321018.010.8 25.922.228.5
Track history (hours):
 
Tides and Currents Weather Stations Pressure Air Temp Water Temp Dewpoint Dewpoint Depression Visibility Wind Speed Wind Dir Waves Ship Positions

Norwegian Dawn

Operator: Norwegian Cruise Line

Last reported at 2018-Feb-26 00:12 UTC. Time now 2018-Feb-26 01:08 UTC.
Position N 27°36' W 082°52'.

Type: Ship. MMSI: 311307000.

Date/timePositionNaut miles runAvg speedWind from/ knotsBaromVisibWave heightAir tempDewpointWater temp
2018-Feb-26 00:12N 27°36' W 082°52'614.7
2018-Feb-25 23:45N 27°36' W 082°44'415.7
2018-Feb-25 23:30N 27°37' W 082°40'715.0
2018-Feb-25 23:00N 27°42' W 082°33'713.3
2018-Feb-25 22:30N 27°48' W 082°30'612.1
2018-Feb-25 22:00N 27°53' W 082°26'3 5.9
2018-Feb-25 21:30N 27°56' W 082°27'1 1.3
2018-Feb-25 20:53N 27°57' W 082°27'0 0.0
2018-Feb-25 20:29N 27°57' W 082°27'0 0.0
2018-Feb-25 19:59N 27°57' W 082°27'0 0.0
2018-Feb-25 19:29N 27°57' W 082°27'0 0.0
2018-Feb-25 18:59N 27°57' W 082°27'0 0.0
2018-Feb-25 18:29N 27°57' W 082°27'0 0.0
2018-Feb-25 17:59N 27°57' W 082°27'0 0.0
2018-Feb-25 17:23N 27°57' W 082°27'0 0.0
2018-Feb-25 16:56N 27°57' W 082°27'0 0.0
2018-Feb-25 16:29N 27°57' W 082°27'0 0.0
2018-Feb-25 15:59N 27°57' W 082°27'0 0.0
2018-Feb-25 15:26N 27°57' W 082°27'0 0.0
2018-Feb-25 14:59N 27°57' W 082°27'0 0.0
2018-Feb-25 14:29N 27°57' W 082°27'0 0.0
2018-Feb-25 13:59N 27°57' W 082°27'0 0.0
2018-Feb-25 13:29N 27°57' W 082°27'0 0.0
2018-Feb-25 12:53N 27°57' W 082°27'0 0.0
2018-Feb-25 12:30N 27°57' W 082°27'0 0.7
2018-Feb-25 12:00N 27°56' W 082°27'2 4.2
2018-Feb-25 11:30N 27°54' W 082°26'3 5.4
2018-Feb-25 11:00N 27°51' W 082°27'611.8
2018-Feb-25 10:30N 27°47' W 082°31'713.3
2018-Feb-25 10:00N 27°41' W 082°34'914.1
2018-Feb-25 09:23N 27°36' W 082°43'76515.8
2018-Feb-23 09:00N 16°00' W 088°24'101 4.2 090 / 251017.3 5.4 26.324.327.4
2018-Feb-22 09:00N 16°42' W 086°48'146 5.6 090 / 301015.3 5.4 26.423.727.4
2018-Feb-21 07:00N 19°06' W 087°12'7810.0 120 / 391017.3 5.4 26.522.827.5
2018-Feb-20 23:09N 20°24' W 087°04'1 7.9
2018-Feb-20 22:59N 20°25' W 087°03'4 8.8
2018-Feb-20 22:30N 20°28' W 087°01'4 7.5
2018-Feb-20 22:00N 20°31' W 086°58'0 0.5
2018-Feb-20 21:29N 20°31' W 086°57'0 0.0
2018-Feb-20 20:53N 20°31' W 086°57'0 0.0
2018-Feb-20 20:29N 20°31' W 086°57'0 0.0
2018-Feb-20 19:59N 20°31' W 086°57'0 0.0
2018-Feb-20 19:29N 20°31' W 086°57'0 0.0
2018-Feb-20 18:59N 20°31' W 086°57'0 0.0
2018-Feb-20 18:29N 20°31' W 086°57'0 0.0
2018-Feb-20 17:59N 20°31' W 086°57'0 0.0
2018-Feb-20 17:29N 20°31' W 086°57'0 0.0
2018-Feb-20 16:59N 20°31' W 086°57'0 0.0
2018-Feb-20 16:29N 20°31' W 086°57'0 0.0
2018-Feb-20 15:59N 20°31' W 086°57'0 0.0
2018-Feb-20 15:29N 20°31' W 086°57'0 0.0
2018-Feb-20 14:59N 20°31' W 086°57'0 0.0
2018-Feb-20 14:29N 20°31' W 086°57'0 0.0
2018-Feb-20 13:59N 20°31' W 086°57'0 0.0
2018-Feb-20 13:29N 20°31' W 086°57'0 0.0
2018-Feb-20 12:59N 20°31' W 086°57'0 0.0
2018-Feb-20 12:29N 20°31' W 086°57'0 0.0
2018-Feb-20 12:00N 20°31' W 086°57'2 3.4
2018-Feb-20 11:30N 20°32' W 086°57'5 9.3
2018-Feb-20 11:00N 20°37' W 086°55'5110.1
2018-Feb-20 06:00N 21°18' W 086°24'28714.4 110 / 291017.310.8 26.023.727.3
2018-Feb-19 10:00N 25°36' W 084°06'11713.9 110 / 311021.1 5.4 27.225.025.9
2018-Feb-19 01:34N 27°21' W 083°09'113.9
2018-Feb-19 01:29N 27°22' W 083°09'713.9
2018-Feb-19 01:00N 27°28' W 083°05'713.7
2018-Feb-19 00:31N 27°34' W 083°02'714.9
2018-Feb-19 00:00N 27°36' W 082°54'816.1
2018-Feb-18 23:30N 27°36' W 082°44'816.1
2018-Feb-18 23:00N 27°40' W 082°36'715.0
2018-Feb-18 22:30N 27°46' W 082°31'612.0
2018-Feb-18 22:00N 27°50' W 082°27'5 9.8
2018-Feb-18 21:31N 27°55' W 082°27'2 3.5
2018-Feb-18 21:00N 27°57' W 082°27'0 0.0
2018-Feb-18 20:27N 27°57' W 082°27'0 0.0
2018-Feb-18 20:00N 27°57' W 082°27'0 0.0
2018-Feb-18 19:30N 27°57' W 082°27'0 0.0
2018-Feb-18 18:54N 27°57' W 082°27'0 0.0
2018-Feb-18 18:18N 27°57' W 082°27'0 0.0
2018-Feb-18 18:00N 27°57' W 082°27'0 0.0
2018-Feb-18 17:30N 27°57' W 082°27'0 0.0
2018-Feb-18 16:54N 27°57' W 082°27'0 0.0
2018-Feb-18 16:27N 27°57' W 082°27'0 0.0
2018-Feb-18 16:00N 27°57' W 082°27'0 0.0
2018-Feb-18 15:30N 27°57' W 082°27'0 0.0
2018-Feb-18 15:00N 27°57' W 082°27'0 0.0
2018-Feb-18 14:27N 27°57' W 082°27'0 0.0
2018-Feb-18 13:51N 27°57' W 082°27'0 0.0
2018-Feb-18 13:30N 27°57' W 082°27'0 0.0
2018-Feb-18 13:00N 27°57' W 082°27'0 0.0
2018-Feb-18 12:21N 27°57' W 082°27'0 0.0
2018-Feb-18 12:00N 27°57' W 082°27'0 0.0
2018-Feb-18 11:27N 27°57' W 082°27'0 0.0
2018-Feb-18 11:00N 27°57' W 082°27'0 0.0
2018-Feb-18 10:30N 27°57' W 082°27'0 0.0
2018-Feb-18 10:00N 27°57' W 082°27'0 0.0
2018-Feb-18 09:30N 27°57' W 082°27'0 0.1
2018-Feb-18 09:00N 27°57' W 082°27'0 0.9
2018-Feb-18 08:30N 27°56' W 082°27'2 4.0
2018-Feb-18 08:00N 27°54' W 082°26'612.0
2018-Feb-18 07:30N 27°48' W 082°28'612.7
2018-Feb-18 07:00N 27°43' W 082°32'815.9
2018-Feb-18 06:30N 27°38' W 082°38'816.6
2018-Feb-18 06:00N 27°37' W 082°48'714.5
2018-Feb-18 05:30N 27°36' W 082°56'1014.8
2018-Feb-18 04:51N 27°30' W 083°04'515.3
2018-Feb-18 04:30N 27°25' W 083°06'39917.7
2018-Feb-17 06:00N 20°48' W 083°48'235 9.8 050 / 171019.010.8 24.621.328.0
2018-Feb-16 06:00N 19°00' W 080°06'   030 / 321018.010.8 25.922.228.5

Dump ship's entire track history